sensor_id;sensor_type;location;lat;lon;timestamp;P1;durP1;ratioP1;P2;durP2;ratioP2
355;SDS011;62514;48.112;11.566;2024-02-16T00:00:46;260.80;;;55.27;;
355;SDS011;62514;48.112;11.566;2024-02-16T00:03:12;274.50;;;58.67;;
355;SDS011;62514;48.112;11.566;2024-02-16T00:05:38;270.00;;;57.87;;
355;SDS011;62514;48.112;11.566;2024-02-16T00:08:04;277.50;;;59.70;;
355;SDS011;62514;48.112;11.566;2024-02-16T00:10:30;265.43;;;56.57;;
355;SDS011;62514;48.112;11.566;2024-02-16T00:12:56;274.73;;;59.03;;
355;SDS011;62514;48.112;11.566;2024-02-16T00:15:22;264.80;;;55.93;;
355;SDS011;62514;48.112;11.566;2024-02-16T00:17:49;275.50;;;57.87;;
355;SDS011;62514;48.112;11.566;2024-02-16T00:20:15;269.77;;;55.80;;
355;SDS011;62514;48.112;11.566;2024-02-16T00:22:41;275.77;;;57.07;;
355;SDS011;62514;48.112;11.566;2024-02-16T00:25:07;268.53;;;56.30;;
355;SDS011;62514;48.112;11.566;2024-02-16T00:27:33;267.90;;;56.83;;
355;SDS011;62514;48.112;11.566;2024-02-16T00:29:59;273.40;;;58.30;;
355;SDS011;62514;48.112;11.566;2024-02-16T00:32:28;286.60;;;61.70;;
355;SDS011;62514;48.112;11.566;2024-02-16T00:34:56;283.57;;;59.03;;
355;SDS011;62514;48.112;11.566;2024-02-16T00:37:22;273.07;;;57.10;;
355;SDS011;62514;48.112;11.566;2024-02-16T00:39:49;281.80;;;59.70;;
355;SDS011;62514;48.112;11.566;2024-02-16T00:42:15;290.83;;;59.53;;
355;SDS011;62514;48.112;11.566;2024-02-16T00:44:41;293.50;;;59.80;;
355;SDS011;62514;48.112;11.566;2024-02-16T00:47:07;281.87;;;59.90;;
355;SDS011;62514;48.112;11.566;2024-02-16T00:49:35;277.73;;;59.23;;
355;SDS011;62514;48.112;11.566;2024-02-16T00:52:01;316.90;;;71.87;;
355;SDS011;62514;48.112;11.566;2024-02-16T00:54:27;296.77;;;58.30;;
355;SDS011;62514;48.112;11.566;2024-02-16T00:56:53;333.37;;;69.27;;
355;SDS011;62514;48.112;11.566;2024-02-16T00:59:20;347.23;;;67.00;;
355;SDS011;62514;48.112;11.566;2024-02-16T01:01:49;346.53;;;69.40;;
355;SDS011;62514;48.112;11.566;2024-02-16T01:04:21;347.50;;;67.23;;
355;SDS011;62514;48.112;11.566;2024-02-16T01:06:48;340.73;;;66.97;;
355;SDS011;62514;48.112;11.566;2024-02-16T01:09:14;346.37;;;66.13;;
355;SDS011;62514;48.112;11.566;2024-02-16T01:11:41;341.17;;;66.47;;
355;SDS011;62514;48.112;11.566;2024-02-16T01:14:08;351.40;;;68.60;;
355;SDS011;62514;48.112;11.566;2024-02-16T01:16:34;344.17;;;66.30;;
355;SDS011;62514;48.112;11.566;2024-02-16T01:19:01;346.03;;;67.37;;
355;SDS011;62514;48.112;11.566;2024-02-16T01:21:27;346.37;;;67.60;;
355;SDS011;62514;48.112;11.566;2024-02-16T01:23:55;344.40;;;66.10;;
355;SDS011;62514;48.112;11.566;2024-02-16T01:26:24;344.60;;;66.10;;
355;SDS011;62514;48.112;11.566;2024-02-16T01:28:50;374.53;;;65.93;;
355;SDS011;62514;48.112;11.566;2024-02-16T01:31:16;349.07;;;68.33;;
355;SDS011;62514;48.112;11.566;2024-02-16T01:33:42;340.40;;;65.40;;
355;SDS011;62514;48.112;11.566;2024-02-16T01:36:08;346.30;;;65.93;;
355;SDS011;62514;48.112;11.566;2024-02-16T01:38:34;346.47;;;67.10;;
355;SDS011;62514;48.112;11.566;2024-02-16T01:41:00;345.17;;;67.37;;
355;SDS011;62514;48.112;11.566;2024-02-16T01:43:27;351.70;;;69.33;;
355;SDS011;62514;48.112;11.566;2024-02-16T01:45:53;349.37;;;68.73;;
355;SDS011;62514;48.112;11.566;2024-02-16T01:48:19;346.40;;;69.63;;
355;SDS011;62514;48.112;11.566;2024-02-16T01:50:45;340.23;;;66.03;;
355;SDS011;62514;48.112;11.566;2024-02-16T01:53:14;350.03;;;70.60;;
355;SDS011;62514;48.112;11.566;2024-02-16T01:55:47;341.83;;;68.47;;
355;SDS011;62514;48.112;11.566;2024-02-16T01:58:13;347.97;;;68.63;;
355;SDS011;62514;48.112;11.566;2024-02-16T02:00:42;348.43;;;68.90;;
355;SDS011;62514;48.112;11.566;2024-02-16T02:03:08;345.70;;;67.93;;
355;SDS011;62514;48.112;11.566;2024-02-16T02:05:43;345.60;;;67.47;;
355;SDS011;62514;48.112;11.566;2024-02-16T02:08:10;336.80;;;65.03;;
355;SDS011;62514;48.112;11.566;2024-02-16T02:10:37;335.60;;;64.70;;
355;SDS011;62514;48.112;11.566;2024-02-16T02:13:04;340.77;;;65.70;;
355;SDS011;62514;48.112;11.566;2024-02-16T02:15:30;346.97;;;67.43;;
355;SDS011;62514;48.112;11.566;2024-02-16T02:17:56;336.13;;;66.13;;
355;SDS011;62514;48.112;11.566;2024-02-16T02:20:24;341.83;;;66.70;;
355;SDS011;62514;48.112;11.566;2024-02-16T02:22:50;338.87;;;67.90;;
355;SDS011;62514;48.112;11.566;2024-02-16T02:25:16;344.50;;;67.70;;
355;SDS011;62514;48.112;11.566;2024-02-16T02:27:42;346.37;;;68.70;;
355;SDS011;62514;48.112;11.566;2024-02-16T02:30:08;344.90;;;68.20;;
355;SDS011;62514;48.112;11.566;2024-02-16T02:32:34;335.93;;;66.37;;
355;SDS011;62514;48.112;11.566;2024-02-16T02:35:01;337.77;;;65.07;;
355;SDS011;62514;48.112;11.566;2024-02-16T02:37:29;339.80;;;67.20;;
355;SDS011;62514;48.112;11.566;2024-02-16T02:39:55;334.23;;;65.90;;
355;SDS011;62514;48.112;11.566;2024-02-16T02:42:27;334.67;;;64.57;;
355;SDS011;62514;48.112;11.566;2024-02-16T02:44:53;342.20;;;66.40;;
355;SDS011;62514;48.112;11.566;2024-02-16T02:47:19;339.37;;;65.23;;
355;SDS011;62514;48.112;11.566;2024-02-16T02:49:45;337.37;;;66.23;;
355;SDS011;62514;48.112;11.566;2024-02-16T02:52:11;342.10;;;66.60;;
355;SDS011;62514;48.112;11.566;2024-02-16T02:54:37;341.17;;;65.57;;
355;SDS011;62514;48.112;11.566;2024-02-16T02:57:04;345.57;;;67.87;;
355;SDS011;62514;48.112;11.566;2024-02-16T02:59:30;338.87;;;67.67;;
355;SDS011;62514;48.112;11.566;2024-02-16T03:01:56;345.40;;;69.60;;
355;SDS011;62514;48.112;11.566;2024-02-16T03:04:22;338.83;;;67.10;;
355;SDS011;62514;48.112;11.566;2024-02-16T03:06:48;345.47;;;69.27;;
355;SDS011;62514;48.112;11.566;2024-02-16T03:09:16;344.13;;;67.63;;
355;SDS011;62514;48.112;11.566;2024-02-16T03:11:42;342.33;;;66.20;;
355;SDS011;62514;48.112;11.566;2024-02-16T03:14:08;337.40;;;66.47;;
355;SDS011;62514;48.112;11.566;2024-02-16T03:16:34;330.57;;;63.63;;
355;SDS011;62514;48.112;11.566;2024-02-16T03:19:00;343.83;;;66.80;;
355;SDS011;62514;48.112;11.566;2024-02-16T03:21:26;348.00;;;68.00;;
355;SDS011;62514;48.112;11.566;2024-02-16T03:23:52;336.77;;;64.90;;
355;SDS011;62514;48.112;11.566;2024-02-16T03:26:19;345.07;;;67.13;;
355;SDS011;62514;48.112;11.566;2024-02-16T03:28:46;344.13;;;67.83;;
355;SDS011;62514;48.112;11.566;2024-02-16T03:31:19;337.17;;;64.37;;
355;SDS011;62514;48.112;11.566;2024-02-16T03:33:46;347.93;;;69.50;;
355;SDS011;62514;48.112;11.566;2024-02-16T03:36:13;334.07;;;63.77;;
355;SDS011;62514;48.112;11.566;2024-02-16T03:38:49;337.97;;;65.77;;
355;SDS011;62514;48.112;11.566;2024-02-16T03:41:19;348.77;;;69.20;;
355;SDS011;62514;48.112;11.566;2024-02-16T03:43:46;343.60;;;67.27;;
355;SDS011;62514;48.112;11.566;2024-02-16T03:46:12;334.00;;;65.90;;
355;SDS011;62514;48.112;11.566;2024-02-16T03:48:38;337.77;;;65.90;;
355;SDS011;62514;48.112;11.566;2024-02-16T03:51:05;345.40;;;69.27;;
355;SDS011;62514;48.112;11.566;2024-02-16T03:53:31;341.53;;;65.37;;
355;SDS011;62514;48.112;11.566;2024-02-16T03:55:59;342.80;;;66.93;;
355;SDS011;62514;48.112;11.566;2024-02-16T03:58:25;345.70;;;69.40;;
355;SDS011;62514;48.112;11.566;2024-02-16T04:00:52;340.67;;;67.20;;
355;SDS011;62514;48.112;11.566;2024-02-16T04:03:18;349.20;;;69.13;;
355;SDS011;62514;48.112;11.566;2024-02-16T04:05:44;344.17;;;67.07;;
355;SDS011;62514;48.112;11.566;2024-02-16T04:08:10;344.10;;;68.37;;
355;SDS011;62514;48.112;11.566;2024-02-16T04:10:36;276.53;;;58.17;;
355;SDS011;62514;48.112;11.566;2024-02-16T04:13:02;250.60;;;54.37;;
355;SDS011;62514;48.112;11.566;2024-02-16T04:15:28;252.70;;;55.10;;
355;SDS011;62514;48.112;11.566;2024-02-16T04:17:55;249.80;;;55.93;;
355;SDS011;62514;48.112;11.566;2024-02-16T04:20:21;243.20;;;54.57;;
355;SDS011;62514;48.112;11.566;2024-02-16T04:22:48;250.70;;;55.53;;
355;SDS011;62514;48.112;11.566;2024-02-16T04:25:14;248.10;;;55.80;;
355;SDS011;62514;48.112;11.566;2024-02-16T04:27:40;244.80;;;54.70;;
355;SDS011;62514;48.112;11.566;2024-02-16T04:30:06;236.47;;;52.70;;
355;SDS011;62514;48.112;11.566;2024-02-16T04:32:32;233.83;;;53.17;;
355;SDS011;62514;48.112;11.566;2024-02-16T04:34:58;235.67;;;53.20;;
355;SDS011;62514;48.112;11.566;2024-02-16T04:37:24;236.80;;;52.60;;
355;SDS011;62514;48.112;11.566;2024-02-16T04:39:51;239.13;;;54.37;;
355;SDS011;62514;48.112;11.566;2024-02-16T04:42:17;242.17;;;54.63;;
355;SDS011;62514;48.112;11.566;2024-02-16T04:44:43;240.20;;;54.80;;
355;SDS011;62514;48.112;11.566;2024-02-16T04:47:09;240.67;;;54.83;;
355;SDS011;62514;48.112;11.566;2024-02-16T04:49:35;238.23;;;54.00;;
355;SDS011;62514;48.112;11.566;2024-02-16T04:52:02;246.83;;;59.20;;
355;SDS011;62514;48.112;11.566;2024-02-16T04:54:28;232.93;;;52.40;;
355;SDS011;62514;48.112;11.566;2024-02-16T04:56:54;243.93;;;55.10;;
355;SDS011;62514;48.112;11.566;2024-02-16T04:59:20;243.63;;;56.03;;
355;SDS011;62514;48.112;11.566;2024-02-16T05:01:46;242.37;;;55.40;;
355;SDS011;62514;48.112;11.566;2024-02-16T05:04:13;239.37;;;56.40;;
355;SDS011;62514;48.112;11.566;2024-02-16T05:06:42;237.23;;;54.20;;
355;SDS011;62514;48.112;11.566;2024-02-16T05:09:12;235.73;;;55.10;;
355;SDS011;62514;48.112;11.566;2024-02-16T05:11:42;241.07;;;56.87;;
355;SDS011;62514;48.112;11.566;2024-02-16T05:14:09;240.40;;;56.07;;
355;SDS011;62514;48.112;11.566;2024-02-16T05:16:37;227.37;;;51.87;;
355;SDS011;62514;48.112;11.566;2024-02-16T05:19:07;232.07;;;53.33;;
355;SDS011;62514;48.112;11.566;2024-02-16T05:21:33;241.20;;;55.17;;
355;SDS011;62514;48.112;11.566;2024-02-16T05:24:00;241.77;;;53.73;;
355;SDS011;62514;48.112;11.566;2024-02-16T05:26:26;239.50;;;54.60;;
355;SDS011;62514;48.112;11.566;2024-02-16T05:28:52;242.90;;;54.87;;
355;SDS011;62514;48.112;11.566;2024-02-16T05:31:18;243.00;;;55.93;;
355;SDS011;62514;48.112;11.566;2024-02-16T05:33:46;242.27;;;54.57;;
355;SDS011;62514;48.112;11.566;2024-02-16T05:36:21;234.73;;;52.90;;
355;SDS011;62514;48.112;11.566;2024-02-16T05:38:50;233.63;;;52.60;;
355;SDS011;62514;48.112;11.566;2024-02-16T05:41:17;239.77;;;54.03;;
355;SDS011;62514;48.112;11.566;2024-02-16T05:43:44;242.63;;;55.53;;
355;SDS011;62514;48.112;11.566;2024-02-16T05:46:13;244.60;;;55.27;;
355;SDS011;62514;48.112;11.566;2024-02-16T05:48:40;246.07;;;54.90;;
355;SDS011;62514;48.112;11.566;2024-02-16T05:51:06;247.23;;;55.77;;
355;SDS011;62514;48.112;11.566;2024-02-16T05:53:32;255.73;;;56.57;;
355;SDS011;62514;48.112;11.566;2024-02-16T05:55:59;247.37;;;54.73;;
355;SDS011;62514;48.112;11.566;2024-02-16T05:58:25;257.03;;;57.63;;
355;SDS011;62514;48.112;11.566;2024-02-16T06:00:51;251.80;;;56.63;;
355;SDS011;62514;48.112;11.566;2024-02-16T06:03:17;254.70;;;57.73;;
355;SDS011;62514;48.112;11.566;2024-02-16T06:05:43;248.90;;;56.07;;
355;SDS011;62514;48.112;11.566;2024-02-16T06:08:12;258.27;;;58.63;;
355;SDS011;62514;48.112;11.566;2024-02-16T06:10:39;250.47;;;57.47;;
355;SDS011;62514;48.112;11.566;2024-02-16T06:13:07;255.80;;;57.77;;
355;SDS011;62514;48.112;11.566;2024-02-16T06:15:33;252.30;;;56.30;;
355;SDS011;62514;48.112;11.566;2024-02-16T06:17:59;258.20;;;58.00;;
355;SDS011;62514;48.112;11.566;2024-02-16T06:20:26;248.80;;;57.00;;
355;SDS011;62514;48.112;11.566;2024-02-16T06:22:52;260.23;;;61.10;;
355;SDS011;62514;48.112;11.566;2024-02-16T06:25:18;259.30;;;57.93;;
355;SDS011;62514;48.112;11.566;2024-02-16T06:27:44;255.73;;;57.47;;
355;SDS011;62514;48.112;11.566;2024-02-16T06:30:11;254.27;;;57.47;;
355;SDS011;62514;48.112;11.566;2024-02-16T06:32:40;245.87;;;55.27;;
355;SDS011;62514;48.112;11.566;2024-02-16T06:35:07;243.63;;;55.87;;
355;SDS011;62514;48.112;11.566;2024-02-16T06:37:33;247.97;;;56.47;;
355;SDS011;62514;48.112;11.566;2024-02-16T06:40:00;249.40;;;57.07;;
355;SDS011;62514;48.112;11.566;2024-02-16T06:42:26;254.47;;;57.90;;
355;SDS011;62514;48.112;11.566;2024-02-16T06:44:52;255.70;;;57.63;;
355;SDS011;62514;48.112;11.566;2024-02-16T06:47:18;253.93;;;57.40;;
355;SDS011;62514;48.112;11.566;2024-02-16T06:49:44;254.50;;;57.50;;
355;SDS011;62514;48.112;11.566;2024-02-16T06:52:11;257.03;;;57.30;;
355;SDS011;62514;48.112;11.566;2024-02-16T06:54:38;255.10;;;58.40;;
355;SDS011;62514;48.112;11.566;2024-02-16T06:57:03;271.03;;;63.10;;
355;SDS011;62514;48.112;11.566;2024-02-16T06:59:30;258.00;;;58.20;;
355;SDS011;62514;48.112;11.566;2024-02-16T07:01:56;272.83;;;65.43;;
355;SDS011;62514;48.112;11.566;2024-02-16T07:04:22;267.97;;;61.00;;
355;SDS011;62514;48.112;11.566;2024-02-16T07:06:48;275.70;;;63.30;;
355;SDS011;62514;48.112;11.566;2024-02-16T07:09:14;276.13;;;63.30;;
355;SDS011;62514;48.112;11.566;2024-02-16T07:11:41;275.83;;;62.83;;
355;SDS011;62514;48.112;11.566;2024-02-16T07:14:08;272.13;;;61.17;;
355;SDS011;62514;48.112;11.566;2024-02-16T07:16:34;274.67;;;61.40;;
355;SDS011;62514;48.112;11.566;2024-02-16T07:19:00;276.10;;;64.57;;
355;SDS011;62514;48.112;11.566;2024-02-16T07:21:26;267.60;;;61.37;;
355;SDS011;62514;48.112;11.566;2024-02-16T07:23:52;267.00;;;61.23;;
355;SDS011;62514;48.112;11.566;2024-02-16T07:26:18;269.67;;;62.07;;
355;SDS011;62514;48.112;11.566;2024-02-16T07:28:44;279.17;;;64.37;;
355;SDS011;62514;48.112;11.566;2024-02-16T07:31:11;273.43;;;62.60;;
355;SDS011;62514;48.112;11.566;2024-02-16T07:33:37;273.60;;;62.40;;
355;SDS011;62514;48.112;11.566;2024-02-16T07:36:03;275.23;;;62.93;;
355;SDS011;62514;48.112;11.566;2024-02-16T07:38:29;276.77;;;63.47;;
355;SDS011;62514;48.112;11.566;2024-02-16T07:40:55;278.57;;;63.73;;
355;SDS011;62514;48.112;11.566;2024-02-16T07:43:21;289.60;;;67.23;;
355;SDS011;62514;48.112;11.566;2024-02-16T07:45:49;290.57;;;65.63;;
355;SDS011;62514;48.112;11.566;2024-02-16T07:48:19;307.87;;;73.70;;
355;SDS011;62514;48.112;11.566;2024-02-16T07:50:48;310.40;;;72.63;;
355;SDS011;62514;48.112;11.566;2024-02-16T07:53:17;326.17;;;78.13;;
355;SDS011;62514;48.112;11.566;2024-02-16T07:55:43;322.23;;;79.30;;
355;SDS011;62514;48.112;11.566;2024-02-16T07:58:09;329.27;;;81.27;;
355;SDS011;62514;48.112;11.566;2024-02-16T08:00:35;322.73;;;78.87;;
355;SDS011;62514;48.112;11.566;2024-02-16T08:03:01;321.60;;;80.23;;
355;SDS011;62514;48.112;11.566;2024-02-16T08:05:28;327.37;;;82.63;;
355;SDS011;62514;48.112;11.566;2024-02-16T08:07:54;329.67;;;80.27;;
355;SDS011;62514;48.112;11.566;2024-02-16T08:10:21;321.50;;;78.70;;
355;SDS011;62514;48.112;11.566;2024-02-16T08:12:47;328.90;;;80.77;;
355;SDS011;62514;48.112;11.566;2024-02-16T08:15:14;323.57;;;78.47;;
355;SDS011;62514;48.112;11.566;2024-02-16T08:17:40;314.23;;;75.00;;
355;SDS011;62514;48.112;11.566;2024-02-16T08:20:06;321.10;;;77.50;;
355;SDS011;62514;48.112;11.566;2024-02-16T08:22:32;318.30;;;75.07;;
355;SDS011;62514;48.112;11.566;2024-02-16T08:24:59;319.33;;;76.47;;
355;SDS011;62514;48.112;11.566;2024-02-16T08:27:26;335.47;;;83.87;;
355;SDS011;62514;48.112;11.566;2024-02-16T08:29:51;335.50;;;85.90;;
355;SDS011;62514;48.112;11.566;2024-02-16T08:32:17;336.50;;;83.00;;
355;SDS011;62514;48.112;11.566;2024-02-16T08:34:45;345.80;;;85.60;;
355;SDS011;62514;48.112;11.566;2024-02-16T08:37:13;343.87;;;86.27;;
355;SDS011;62514;48.112;11.566;2024-02-16T08:39:39;352.00;;;88.83;;
355;SDS011;62514;48.112;11.566;2024-02-16T08:42:06;351.47;;;93.17;;
355;SDS011;62514;48.112;11.566;2024-02-16T08:44:37;360.57;;;94.60;;
355;SDS011;62514;48.112;11.566;2024-02-16T08:47:04;377.83;;;94.87;;
355;SDS011;62514;48.112;11.566;2024-02-16T08:49:30;367.07;;;95.77;;
355;SDS011;62514;48.112;11.566;2024-02-16T08:51:56;401.50;;;114.57;;
355;SDS011;62514;48.112;11.566;2024-02-16T08:54:22;381.83;;;100.97;;
355;SDS011;62514;48.112;11.566;2024-02-16T08:56:48;389.73;;;103.23;;
355;SDS011;62514;48.112;11.566;2024-02-16T08:59:14;377.27;;;102.57;;
355;SDS011;62514;48.112;11.566;2024-02-16T09:01:40;385.53;;;102.97;;
355;SDS011;62514;48.112;11.566;2024-02-16T09:04:08;387.50;;;104.13;;
355;SDS011;62514;48.112;11.566;2024-02-16T09:06:34;401.87;;;110.20;;
355;SDS011;62514;48.112;11.566;2024-02-16T09:09:00;401.00;;;110.87;;
355;SDS011;62514;48.112;11.566;2024-02-16T09:11:26;413.63;;;117.30;;
355;SDS011;62514;48.112;11.566;2024-02-16T09:13:53;419.50;;;120.13;;
355;SDS011;62514;48.112;11.566;2024-02-16T09:16:19;411.83;;;118.33;;
355;SDS011;62514;48.112;11.566;2024-02-16T09:18:45;405.17;;;117.47;;
355;SDS011;62514;48.112;11.566;2024-02-16T09:21:13;422.50;;;124.33;;
355;SDS011;62514;48.112;11.566;2024-02-16T09:23:39;427.43;;;129.27;;
355;SDS011;62514;48.112;11.566;2024-02-16T09:26:05;427.20;;;131.77;;
355;SDS011;62514;48.112;11.566;2024-02-16T09:28:31;409.97;;;123.87;;
355;SDS011;62514;48.112;11.566;2024-02-16T09:30:57;423.80;;;129.33;;
355;SDS011;62514;48.112;11.566;2024-02-16T09:33:23;442.23;;;137.27;;
355;SDS011;62514;48.112;11.566;2024-02-16T09:35:50;426.60;;;131.10;;
355;SDS011;62514;48.112;11.566;2024-02-16T09:38:16;442.50;;;136.77;;
355;SDS011;62514;48.112;11.566;2024-02-16T09:40:43;440.87;;;141.73;;
355;SDS011;62514;48.112;11.566;2024-02-16T09:43:09;424.57;;;136.93;;
355;SDS011;62514;48.112;11.566;2024-02-16T09:45:36;422.80;;;136.70;;
355;SDS011;62514;48.112;11.566;2024-02-16T09:48:03;426.77;;;135.27;;
355;SDS011;62514;48.112;11.566;2024-02-16T09:50:35;421.67;;;136.80;;
355;SDS011;62514;48.112;11.566;2024-02-16T09:53:02;417.77;;;137.20;;
355;SDS011;62514;48.112;11.566;2024-02-16T09:55:31;428.03;;;140.00;;
355;SDS011;62514;48.112;11.566;2024-02-16T09:58:01;417.57;;;133.83;;
355;SDS011;62514;48.112;11.566;2024-02-16T10:00:27;433.93;;;139.33;;
355;SDS011;62514;48.112;11.566;2024-02-16T10:02:53;421.43;;;132.50;;
355;SDS011;62514;48.112;11.566;2024-02-16T10:05:20;436.13;;;146.97;;
355;SDS011;62514;48.112;11.566;2024-02-16T10:07:46;449.53;;;158.93;;
355;SDS011;62514;48.112;11.566;2024-02-16T10:10:19;450.03;;;156.63;;
355;SDS011;62514;48.112;11.566;2024-02-16T10:12:49;448.53;;;159.33;;
355;SDS011;62514;48.112;11.566;2024-02-16T10:15:22;461.20;;;166.17;;
355;SDS011;62514;48.112;11.566;2024-02-16T10:17:59;457.87;;;161.10;;
355;SDS011;62514;48.112;11.566;2024-02-16T10:20:32;455.57;;;164.13;;
355;SDS011;62514;48.112;11.566;2024-02-16T10:23:06;463.70;;;173.73;;
355;SDS011;62514;48.112;11.566;2024-02-16T10:25:34;481.47;;;195.57;;
355;SDS011;62514;48.112;11.566;2024-02-16T10:28:03;483.03;;;191.73;;
355;SDS011;62514;48.112;11.566;2024-02-16T10:30:31;509.60;;;218.43;;
355;SDS011;62514;48.112;11.566;2024-02-16T10:33:00;519.03;;;237.73;;
355;SDS011;62514;48.112;11.566;2024-02-16T10:35:27;540.80;;;258.30;;
355;SDS011;62514;48.112;11.566;2024-02-16T10:37:55;542.40;;;282.77;;
355;SDS011;62514;48.112;11.566;2024-02-16T10:40:23;540.17;;;288.80;;
355;SDS011;62514;48.112;11.566;2024-02-16T10:42:49;551.50;;;299.83;;
355;SDS011;62514;48.112;11.566;2024-02-16T10:45:18;552.73;;;314.67;;
355;SDS011;62514;48.112;11.566;2024-02-16T10:47:46;567.10;;;351.93;;
355;SDS011;62514;48.112;11.566;2024-02-16T10:50:12;566.83;;;362.13;;
355;SDS011;62514;48.112;11.566;2024-02-16T10:52:39;572.20;;;378.40;;
355;SDS011;62514;48.112;11.566;2024-02-16T10:55:08;589.60;;;403.53;;
355;SDS011;62514;48.112;11.566;2024-02-16T10:57:38;584.87;;;404.53;;
355;SDS011;62514;48.112;11.566;2024-02-16T11:00:09;600.33;;;436.37;;
355;SDS011;62514;48.112;11.566;2024-02-16T11:02:55;595.60;;;436.43;;
355;SDS011;62514;48.112;11.566;2024-02-16T11:08:14;615.30;;;483.80;;
355;SDS011;62514;48.112;11.566;2024-02-16T11:10:41;629.23;;;516.37;;
355;SDS011;62514;48.112;11.566;2024-02-16T11:13:23;617.97;;;503.30;;
355;SDS011;62514;48.112;11.566;2024-02-16T11:15:56;625.70;;;525.60;;
355;SDS011;62514;48.112;11.566;2024-02-16T11:18:32;621.53;;;530.23;;
355;SDS011;62514;48.112;11.566;2024-02-16T11:21:02;625.27;;;518.27;;
355;SDS011;62514;48.112;11.566;2024-02-16T11:23:29;612.20;;;500.90;;
355;SDS011;62514;48.112;11.566;2024-02-16T11:26:00;619.70;;;508.00;;
355;SDS011;62514;48.112;11.566;2024-02-16T11:28:29;624.73;;;515.70;;
355;SDS011;62514;48.112;11.566;2024-02-16T11:30:58;626.57;;;502.53;;
355;SDS011;62514;48.112;11.566;2024-02-16T11:33:25;618.63;;;504.90;;
355;SDS011;62514;48.112;11.566;2024-02-16T11:35:56;616.77;;;515.43;;
355;SDS011;62514;48.112;11.566;2024-02-16T11:38:23;620.37;;;503.00;;
355;SDS011;62514;48.112;11.566;2024-02-16T11:40:54;605.70;;;469.63;;
355;SDS011;62514;48.112;11.566;2024-02-16T11:43:21;632.00;;;506.37;;
355;SDS011;62514;48.112;11.566;2024-02-16T11:45:50;617.50;;;496.97;;
355;SDS011;62514;48.112;11.566;2024-02-16T11:48:25;616.47;;;493.00;;
355;SDS011;62514;48.112;11.566;2024-02-16T11:50:59;611.93;;;500.10;;
355;SDS011;62514;48.112;11.566;2024-02-16T11:53:27;620.83;;;506.77;;
355;SDS011;62514;48.112;11.566;2024-02-16T11:55:57;616.83;;;507.23;;
355;SDS011;62514;48.112;11.566;2024-02-16T11:58:23;624.70;;;517.97;;
355;SDS011;62514;48.112;11.566;2024-02-16T12:00:50;616.57;;;512.90;;
355;SDS011;62514;48.112;11.566;2024-02-16T12:03:20;622.17;;;534.00;;
355;SDS011;62514;48.112;11.566;2024-02-16T12:05:54;624.50;;;537.13;;
355;SDS011;62514;48.112;11.566;2024-02-16T12:08:24;623.47;;;524.13;;
355;SDS011;62514;48.112;11.566;2024-02-16T12:10:57;619.83;;;541.73;;
355;SDS011;62514;48.112;11.566;2024-02-16T12:13:23;630.97;;;550.33;;
355;SDS011;62514;48.112;11.566;2024-02-16T12:15:50;633.30;;;563.87;;
355;SDS011;62514;48.112;11.566;2024-02-16T12:18:26;630.33;;;554.10;;
355;SDS011;62514;48.112;11.566;2024-02-16T12:20:59;614.47;;;534.60;;
355;SDS011;62514;48.112;11.566;2024-02-16T12:23:25;627.03;;;551.60;;
355;SDS011;62514;48.112;11.566;2024-02-16T12:25:51;635.40;;;564.23;;
355;SDS011;62514;48.112;11.566;2024-02-16T12:28:18;630.67;;;542.47;;
355;SDS011;62514;48.112;11.566;2024-02-16T12:30:48;622.93;;;530.37;;
355;SDS011;62514;48.112;11.566;2024-02-16T12:33:14;623.40;;;519.10;;
355;SDS011;62514;48.112;11.566;2024-02-16T12:35:41;616.33;;;508.40;;
355;SDS011;62514;48.112;11.566;2024-02-16T12:38:08;612.00;;;476.57;;
355;SDS011;62514;48.112;11.566;2024-02-16T12:40:33;610.23;;;471.27;;
355;SDS011;62514;48.112;11.566;2024-02-16T12:42:59;608.67;;;468.97;;
355;SDS011;62514;48.112;11.566;2024-02-16T12:45:25;607.10;;;444.87;;
355;SDS011;62514;48.112;11.566;2024-02-16T12:47:51;598.47;;;441.73;;
355;SDS011;62514;48.112;11.566;2024-02-16T12:50:18;601.53;;;436.93;;
355;SDS011;62514;48.112;11.566;2024-02-16T12:52:44;594.03;;;403.63;;
355;SDS011;62514;48.112;11.566;2024-02-16T12:55:11;591.17;;;404.50;;
355;SDS011;62514;48.112;11.566;2024-02-16T12:57:37;588.33;;;394.00;;
355;SDS011;62514;48.112;11.566;2024-02-16T13:00:03;590.33;;;397.50;;
355;SDS011;62514;48.112;11.566;2024-02-16T13:02:30;584.13;;;385.70;;
355;SDS011;62514;48.112;11.566;2024-02-16T13:04:56;585.80;;;379.40;;
355;SDS011;62514;48.112;11.566;2024-02-16T13:07:23;581.93;;;387.27;;
355;SDS011;62514;48.112;11.566;2024-02-16T13:09:49;590.73;;;424.83;;
355;SDS011;62514;48.112;11.566;2024-02-16T13:12:16;608.20;;;477.57;;
355;SDS011;62514;48.112;11.566;2024-02-16T13:14:42;624.07;;;510.43;;
355;SDS011;62514;48.112;11.566;2024-02-16T13:17:08;614.93;;;505.57;;
355;SDS011;62514;48.112;11.566;2024-02-16T13:19:34;610.53;;;489.37;;
355;SDS011;62514;48.112;11.566;2024-02-16T13:22:00;632.00;;;479.57;;
355;SDS011;62514;48.112;11.566;2024-02-16T13:24:26;593.37;;;423.30;;
355;SDS011;62514;48.112;11.566;2024-02-16T13:26:52;591.50;;;402.77;;
355;SDS011;62514;48.112;11.566;2024-02-16T13:29:17;582.20;;;373.07;;
355;SDS011;62514;48.112;11.566;2024-02-16T13:31:43;564.87;;;342.00;;
355;SDS011;62514;48.112;11.566;2024-02-16T13:34:10;579.33;;;345.77;;
355;SDS011;62514;48.112;11.566;2024-02-16T13:36:36;569.53;;;352.73;;
355;SDS011;62514;48.112;11.566;2024-02-16T13:39:02;560.43;;;336.83;;
355;SDS011;62514;48.112;11.566;2024-02-16T13:41:28;548.20;;;316.70;;
355;SDS011;62514;48.112;11.566;2024-02-16T13:43:54;541.10;;;299.87;;
355;SDS011;62514;48.112;11.566;2024-02-16T13:46:19;559.77;;;337.10;;
355;SDS011;62514;48.112;11.566;2024-02-16T13:48:46;546.77;;;315.03;;
355;SDS011;62514;48.112;11.566;2024-02-16T13:51:13;553.07;;;318.60;;
355;SDS011;62514;48.112;11.566;2024-02-16T13:53:39;545.63;;;301.07;;
355;SDS011;62514;48.112;11.566;2024-02-16T13:56:05;537.13;;;293.40;;
355;SDS011;62514;48.112;11.566;2024-02-16T13:58:31;538.93;;;289.60;;
355;SDS011;62514;48.112;11.566;2024-02-16T14:00:58;534.67;;;279.10;;
355;SDS011;62514;48.112;11.566;2024-02-16T14:03:24;546.67;;;263.27;;
355;SDS011;62514;48.112;11.566;2024-02-16T14:05:50;532.57;;;248.67;;
355;SDS011;62514;48.112;11.566;2024-02-16T14:08:17;525.50;;;231.40;;
355;SDS011;62514;48.112;11.566;2024-02-16T14:10:43;527.83;;;241.47;;
355;SDS011;62514;48.112;11.566;2024-02-16T14:13:09;514.27;;;221.27;;
355;SDS011;62514;48.112;11.566;2024-02-16T14:15:35;529.57;;;234.07;;
355;SDS011;62514;48.112;11.566;2024-02-16T14:18:00;516.17;;;228.40;;